This is the latest recevied weather packets stored in our database for station/object K8WEH. If no packets are shown the sender has not sent any weather packets the latest 10 day(s).
| Time | Temp. | Humidity | Pressure | Rain* | Wind** | Luminosity | Snow |
|---|---|---|---|---|---|---|---|
| 1777911931 | 18.33° C | 67% | 1011.8 hPa | 0 mm | - | - | - |
| 1777911631 | 17.78° C | 68% | 1011.9 hPa | 0 mm | - | - | - |
| 1777911330 | 16.67° C | 74% | 1011.9 hPa | 0 mm | - | - | - |
| 1777911030 | 16.67° C | 72% | 1012 hPa | 0 mm | - | - | - |
| 1777910728 | 16.67° C | 69% | 1011.9 hPa | 0 mm | - | - | - |
| 1777910438 | 17.22° C | 65% | 1012.2 hPa | 0 mm | - | - | - |
| 1777910129 | 17.78° C | 62% | 1012.3 hPa | 0 mm | - | - | - |
| 1777909829 | 17.78° C | 62% | 1012.2 hPa | 0 mm | - | - | - |
| 1777909533 | 17.78° C | 64% | 1012.1 hPa | 0 mm | - | - | - |
| 1777909225 | 17.22° C | 64% | 1012.2 hPa | 0 mm | - | - | - |
| 1777908924 | 16.67° C | 66% | 1012.3 hPa | 0 mm | - | - | - |
| 1777908623 | 16.67° C | 65% | 1012.2 hPa | 0 mm | - | - | - |
| 1777908322 | 16.67° C | 67% | 1012.4 hPa | 0 mm | - | - | - |
| 1777908020 | 16.11° C | 70% | 1012.3 hPa | 0 mm | - | - | - |
| 1777907725 | 16.11° C | 67% | 1012.3 hPa | 0 mm | - | - | - |
| 1777907419 | 16.11° C | 69% | 1012.5 hPa | 0 mm | - | - | - |
| 1777907116 | 15.56° C | 69% | 1012.4 hPa | 0 mm | - | - | - |
| 1777906825 | 15° C | 71% | 1012.7 hPa | 0 mm | - | - | - |
| 1777906515 | 15° C | 70% | 1012.7 hPa | 0 mm | - | - | - |
| 1777906212 | 15° C | 70% | 1012.7 hPa | 0 mm | - | - | - |
| 1777905911 | 14.44° C | 71% | 1012.9 hPa | 0 mm | - | - | - |
| 1777905609 | 14.44° C | 71% | 1013.2 hPa | 0 mm | - | - | - |
| 1777905308 | 13.89° C | 72% | 1013.4 hPa | 0 mm | - | - | - |
| 1777905007 | 13.89° C | 72% | 1013.2 hPa | 0 mm | - | - | - |
| 1777904706 | 13.33° C | 74% | 1013.4 hPa | 0 mm | - | - | - |
* Rain latest hour (hover to see other rain measurements)
** Current wind speed in m/s (hover to see current wind gust speed)